sensor_id;sensor_type;location;lat;lon;timestamp;pressure;altitude;pressure_sealevel;temperature;humidity
37610;BME280;23457;51.966;8.230;2023-05-02T00:00:52;101041.69;;;12.97;100.00
37610;BME280;23457;51.966;8.230;2023-05-02T00:03:20;101045.16;;;12.96;100.00
37610;BME280;23457;51.966;8.230;2023-05-02T00:05:46;101037.19;;;12.83;100.00
37610;BME280;23457;51.966;8.230;2023-05-02T00:08:13;101042.53;;;12.94;100.00
37610;BME280;23457;51.966;8.230;2023-05-02T00:10:40;101033.66;;;12.80;100.00
37610;BME280;23457;51.966;8.230;2023-05-02T00:13:06;101048.44;;;12.78;100.00
37610;BME280;23457;51.966;8.230;2023-05-02T00:15:33;101040.69;;;12.84;100.00
37610;BME280;23457;51.966;8.230;2023-05-02T00:17:59;101039.88;;;12.88;100.00
37610;BME280;23457;51.966;8.230;2023-05-02T00:20:26;101038.16;;;12.90;100.00
37610;BME280;23457;51.966;8.230;2023-05-02T00:22:54;101047.88;;;13.06;100.00
37610;BME280;23457;51.966;8.230;2023-05-02T00:25:22;101049.97;;;12.62;100.00
37610;BME280;23457;51.966;8.230;2023-05-02T00:27:49;101045.84;;;12.81;100.00
37610;BME280;23457;51.966;8.230;2023-05-02T00:30:17;101051.91;;;12.77;100.00
37610;BME280;23457;51.966;8.230;2023-05-02T00:32:44;101054.38;;;12.65;100.00
37610;BME280;23457;51.966;8.230;2023-05-02T00:35:11;101050.91;;;12.66;100.00
37610;BME280;23457;51.966;8.230;2023-05-02T00:37:37;101049.00;;;12.52;100.00
37610;BME280;23457;51.966;8.230;2023-05-02T00:40:05;101057.72;;;12.57;100.00
37610;BME280;23457;51.966;8.230;2023-05-02T00:42:33;101057.75;;;12.59;100.00
37610;BME280;23457;51.966;8.230;2023-05-02T00:45:03;101063.00;;;12.61;100.00
37610;BME280;23457;51.966;8.230;2023-05-02T00:47:32;101059.25;;;12.42;100.00
37610;BME280;23457;51.966;8.230;2023-05-02T00:49:59;101065.13;;;12.26;100.00
37610;BME280;23457;51.966;8.230;2023-05-02T00:52:27;101061.75;;;12.33;100.00
37610;BME280;23457;51.966;8.230;2023-05-02T00:54:54;101067.59;;;12.18;100.00
37610;BME280;23457;51.966;8.230;2023-05-02T00:57:21;101070.38;;;12.30;100.00
37610;BME280;23457;51.966;8.230;2023-05-02T00:59:48;101070.56;;;12.41;100.00
37610;BME280;23457;51.966;8.230;2023-05-02T01:02:29;101070.72;;;12.53;100.00
37610;BME280;23457;51.966;8.230;2023-05-02T01:05:14;101066.31;;;12.49;100.00
37610;BME280;23457;51.966;8.230;2023-05-02T01:10:18;101069.03;;;12.56;100.00
37610;BME280;23457;51.966;8.230;2023-05-02T01:15:22;101073.19;;;11.87;100.00
37610;BME280;23457;51.966;8.230;2023-05-02T01:17:51;101067.97;;;11.85;100.00
37610;BME280;23457;51.966;8.230;2023-05-02T01:20:20;101076.06;;;12.02;100.00
37610;BME280;23457;51.966;8.230;2023-05-02T01:22:50;101065.53;;;11.96;100.00
37610;BME280;23457;51.966;8.230;2023-05-02T01:30:26;101060.41;;;12.02;100.00
37610;BME280;23457;51.966;8.230;2023-05-02T01:32:54;101064.19;;;12.22;100.00
37610;BME280;23457;51.966;8.230;2023-05-02T01:35:22;101070.72;;;11.96;100.00
37610;BME280;23457;51.966;8.230;2023-05-02T01:37:50;101069.41;;;12.22;100.00
37610;BME280;23457;51.966;8.230;2023-05-02T01:40:19;101080.59;;;12.16;100.00
37610;BME280;23457;51.966;8.230;2023-05-02T01:42:49;101086.50;;;12.05;100.00
37610;BME280;23457;51.966;8.230;2023-05-02T01:45:18;101088.00;;;11.91;100.00
37610;BME280;23457;51.966;8.230;2023-05-02T01:47:46;101090.53;;;11.84;100.00
37610;BME280;23457;51.966;8.230;2023-05-02T01:50:18;101091.50;;;11.93;100.00
37610;BME280;23457;51.966;8.230;2023-05-02T01:52:48;101100.28;;;11.98;100.00
37610;BME280;23457;51.966;8.230;2023-05-02T01:55:17;101101.91;;;11.90;100.00
37610;BME280;23457;51.966;8.230;2023-05-02T01:57:45;101114.44;;;11.65;100.00
37610;BME280;23457;51.966;8.230;2023-05-02T02:00:15;101114.31;;;11.58;100.00
37610;BME280;23457;51.966;8.230;2023-05-02T02:02:44;101109.00;;;11.53;100.00
37610;BME280;23457;51.966;8.230;2023-05-02T02:05:13;101117.66;;;11.51;100.00
37610;BME280;23457;51.966;8.230;2023-05-02T02:07:40;101117.09;;;11.68;100.00
37610;BME280;23457;51.966;8.230;2023-05-02T02:10:08;101125.59;;;11.58;100.00
37610;BME280;23457;51.966;8.230;2023-05-02T02:12:58;101133.53;;;11.66;100.00
37610;BME280;23457;51.966;8.230;2023-05-02T02:15:27;101131.34;;;11.42;100.00
37610;BME280;23457;51.966;8.230;2023-05-02T02:18:01;101132.78;;;11.71;100.00
37610;BME280;23457;51.966;8.230;2023-05-02T02:20:31;101135.66;;;11.40;100.00
37610;BME280;23457;51.966;8.230;2023-05-02T02:23:00;101132.44;;;11.53;100.00
37610;BME280;23457;51.966;8.230;2023-05-02T02:25:28;101139.38;;;11.51;100.00
37610;BME280;23457;51.966;8.230;2023-05-02T02:27:56;101137.38;;;11.38;100.00
37610;BME280;23457;51.966;8.230;2023-05-02T02:30:22;101137.19;;;11.29;100.00
37610;BME280;23457;51.966;8.230;2023-05-02T02:32:49;101148.75;;;11.44;100.00
37610;BME280;23457;51.966;8.230;2023-05-02T02:35:18;101152.06;;;11.36;100.00
37610;BME280;23457;51.966;8.230;2023-05-02T02:38:06;101155.28;;;11.23;100.00
37610;BME280;23457;51.966;8.230;2023-05-02T02:40:47;101149.66;;;11.45;100.00
37610;BME280;23457;51.966;8.230;2023-05-02T02:43:29;101149.53;;;11.40;100.00
37610;BME280;23457;51.966;8.230;2023-05-02T02:51:47;101160.84;;;11.41;100.00
37610;BME280;23457;51.966;8.230;2023-05-02T02:54:18;101157.00;;;11.22;100.00
37610;BME280;23457;51.966;8.230;2023-05-02T02:57:00;101150.00;;;11.63;100.00
37610;BME280;23457;51.966;8.230;2023-05-02T02:59:34;101158.44;;;11.50;100.00
37610;BME280;23457;51.966;8.230;2023-05-02T03:02:08;101159.13;;;11.43;100.00
37610;BME280;23457;51.966;8.230;2023-05-02T03:04:37;101157.75;;;11.60;100.00
37610;BME280;23457;51.966;8.230;2023-05-02T03:07:06;101167.69;;;11.36;100.00
37610;BME280;23457;51.966;8.230;2023-05-02T03:09:43;101169.66;;;11.47;100.00
37610;BME280;23457;51.966;8.230;2023-05-02T03:12:15;101174.63;;;11.35;100.00
37610;BME280;23457;51.966;8.230;2023-05-02T03:14:43;101173.19;;;11.53;100.00
37610;BME280;23457;51.966;8.230;2023-05-02T03:17:10;101179.19;;;11.47;100.00
37610;BME280;23457;51.966;8.230;2023-05-02T03:19:37;101169.78;;;11.55;100.00
37610;BME280;23457;51.966;8.230;2023-05-02T03:22:04;101180.41;;;11.66;100.00
37610;BME280;23457;51.966;8.230;2023-05-02T03:24:33;101184.56;;;11.56;100.00
37610;BME280;23457;51.966;8.230;2023-05-02T03:27:00;101188.56;;;11.82;100.00
37610;BME280;23457;51.966;8.230;2023-05-02T03:29:33;101180.66;;;11.76;100.00
37610;BME280;23457;51.966;8.230;2023-05-02T03:32:00;101187.69;;;11.82;100.00
37610;BME280;23457;51.966;8.230;2023-05-02T03:34:27;101181.13;;;11.57;100.00
37610;BME280;23457;51.966;8.230;2023-05-02T03:36:54;101191.53;;;11.57;100.00
37610;BME280;23457;51.966;8.230;2023-05-02T03:39:21;101198.06;;;11.37;100.00
37610;BME280;23457;51.966;8.230;2023-05-02T03:41:48;101196.72;;;11.57;100.00
37610;BME280;23457;51.966;8.230;2023-05-02T03:44:17;101187.97;;;11.52;100.00
37610;BME280;23457;51.966;8.230;2023-05-02T03:46:46;101196.91;;;11.65;100.00
37610;BME280;23457;51.966;8.230;2023-05-02T03:49:13;101197.50;;;11.53;100.00
37610;BME280;23457;51.966;8.230;2023-05-02T03:51:43;101204.00;;;11.31;100.00
37610;BME280;23457;51.966;8.230;2023-05-02T03:54:09;101197.03;;;11.72;100.00
37610;BME280;23457;51.966;8.230;2023-05-02T03:56:39;101206.78;;;11.81;100.00
37610;BME280;23457;51.966;8.230;2023-05-02T03:59:23;101203.75;;;11.61;100.00
37610;BME280;23457;51.966;8.230;2023-05-02T04:01:50;101207.16;;;11.57;100.00
37610;BME280;23457;51.966;8.230;2023-05-02T04:04:21;101218.19;;;11.45;100.00
37610;BME280;23457;51.966;8.230;2023-05-02T04:06:50;101218.50;;;11.61;100.00
37610;BME280;23457;51.966;8.230;2023-05-02T04:09:17;101229.31;;;11.37;100.00
37610;BME280;23457;51.966;8.230;2023-05-02T04:11:53;101226.00;;;11.45;100.00
37610;BME280;23457;51.966;8.230;2023-05-02T04:14:19;101229.47;;;11.46;100.00
37610;BME280;23457;51.966;8.230;2023-05-02T04:16:49;101233.72;;;11.00;100.00
37610;BME280;23457;51.966;8.230;2023-05-02T04:19:22;101233.16;;;11.15;100.00
37610;BME280;23457;51.966;8.230;2023-05-02T04:21:48;101243.91;;;11.30;100.00
37610;BME280;23457;51.966;8.230;2023-05-02T04:24:15;101232.47;;;11.22;100.00
37610;BME280;23457;51.966;8.230;2023-05-02T04:26:43;101242.81;;;11.21;100.00
37610;BME280;23457;51.966;8.230;2023-05-02T04:29:11;101244.91;;;11.37;100.00
37610;BME280;23457;51.966;8.230;2023-05-02T04:31:40;101239.22;;;11.16;100.00
37610;BME280;23457;51.966;8.230;2023-05-02T04:34:08;101254.19;;;11.24;100.00
37610;BME280;23457;51.966;8.230;2023-05-02T04:36:40;101252.00;;;11.44;100.00
37610;BME280;23457;51.966;8.230;2023-05-02T04:39:10;101248.31;;;11.34;100.00
37610;BME280;23457;51.966;8.230;2023-05-02T04:41:40;101263.13;;;11.37;100.00
37610;BME280;23457;51.966;8.230;2023-05-02T04:44:08;101261.44;;;11.39;100.00
37610;BME280;23457;51.966;8.230;2023-05-02T04:46:36;101267.50;;;11.38;100.00
37610;BME280;23457;51.966;8.230;2023-05-02T04:49:03;101264.53;;;11.21;100.00
37610;BME280;23457;51.966;8.230;2023-05-02T04:51:29;101275.97;;;11.29;100.00
37610;BME280;23457;51.966;8.230;2023-05-02T04:53:57;101279.72;;;11.42;100.00
37610;BME280;23457;51.966;8.230;2023-05-02T04:56:25;101277.84;;;11.35;100.00
37610;BME280;23457;51.966;8.230;2023-05-02T04:58:51;101284.25;;;11.11;100.00
37610;BME280;23457;51.966;8.230;2023-05-02T05:01:18;101291.88;;;11.43;100.00
37610;BME280;23457;51.966;8.230;2023-05-02T05:03:45;101301.06;;;10.88;100.00
37610;BME280;23457;51.966;8.230;2023-05-02T05:06:14;101294.91;;;11.22;100.00
37610;BME280;23457;51.966;8.230;2023-05-02T05:08:42;101306.94;;;11.19;100.00
37610;BME280;23457;51.966;8.230;2023-05-02T05:11:11;101302.16;;;11.37;100.00
37610;BME280;23457;51.966;8.230;2023-05-02T05:13:39;101317.00;;;11.03;100.00
37610;BME280;23457;51.966;8.230;2023-05-02T05:16:09;101322.34;;;11.09;100.00
37610;BME280;23457;51.966;8.230;2023-05-02T05:18:36;101326.13;;;10.86;100.00
37610;BME280;23457;51.966;8.230;2023-05-02T05:21:09;101335.63;;;10.84;100.00
37610;BME280;23457;51.966;8.230;2023-05-02T05:23:36;101338.97;;;10.80;100.00
37610;BME280;23457;51.966;8.230;2023-05-02T05:26:12;101336.44;;;10.83;100.00
37610;BME280;23457;51.966;8.230;2023-05-02T05:28:43;101337.38;;;10.85;100.00
37610;BME280;23457;51.966;8.230;2023-05-02T05:31:12;101337.25;;;10.81;100.00
37610;BME280;23457;51.966;8.230;2023-05-02T05:33:45;101348.78;;;10.92;100.00
37610;BME280;23457;51.966;8.230;2023-05-02T05:36:13;101351.59;;;10.99;100.00
37610;BME280;23457;51.966;8.230;2023-05-02T05:38:40;101352.13;;;10.86;100.00
37610;BME280;23457;51.966;8.230;2023-05-02T05:41:08;101355.25;;;11.07;100.00
37610;BME280;23457;51.966;8.230;2023-05-02T05:43:40;101362.41;;;10.82;100.00
37610;BME280;23457;51.966;8.230;2023-05-02T05:46:06;101369.00;;;11.03;100.00
37610;BME280;23457;51.966;8.230;2023-05-02T05:48:35;101368.41;;;11.13;100.00
37610;BME280;23457;51.966;8.230;2023-05-02T05:51:05;101377.94;;;11.14;100.00
37610;BME280;23457;51.966;8.230;2023-05-02T05:53:32;101380.72;;;11.21;100.00
37610;BME280;23457;51.966;8.230;2023-05-02T05:56:11;101383.31;;;11.21;100.00
37610;BME280;23457;51.966;8.230;2023-05-02T05:58:47;101380.97;;;11.31;100.00
37610;BME280;23457;51.966;8.230;2023-05-02T06:01:15;101384.13;;;11.18;100.00
37610;BME280;23457;51.966;8.230;2023-05-02T06:03:42;101391.25;;;11.25;100.00
37610;BME280;23457;51.966;8.230;2023-05-02T06:06:08;101401.66;;;11.25;100.00
37610;BME280;23457;51.966;8.230;2023-05-02T06:08:35;101409.50;;;11.27;100.00
37610;BME280;23457;51.966;8.230;2023-05-02T06:11:07;101412.78;;;11.20;100.00
37610;BME280;23457;51.966;8.230;2023-05-02T06:13:34;101406.94;;;11.30;100.00
37610;BME280;23457;51.966;8.230;2023-05-02T06:16:01;101419.06;;;11.29;100.00
37610;BME280;23457;51.966;8.230;2023-05-02T06:18:28;101409.50;;;11.27;100.00
37610;BME280;23457;51.966;8.230;2023-05-02T06:20:55;101418.28;;;11.32;100.00
37610;BME280;23457;51.966;8.230;2023-05-02T06:23:21;101416.53;;;11.31;100.00
37610;BME280;23457;51.966;8.230;2023-05-02T06:25:49;101423.28;;;11.23;100.00
37610;BME280;23457;51.966;8.230;2023-05-02T06:28:15;101442.88;;;10.77;100.00
37610;BME280;23457;51.966;8.230;2023-05-02T06:30:42;101451.81;;;10.55;100.00
37610;BME280;23457;51.966;8.230;2023-05-02T06:33:08;101454.19;;;10.46;100.00
37610;BME280;23457;51.966;8.230;2023-05-02T06:35:35;101453.59;;;10.26;100.00
37610;BME280;23457;51.966;8.230;2023-05-02T06:38:02;101462.75;;;10.15;100.00
37610;BME280;23457;51.966;8.230;2023-05-02T06:40:28;101475.78;;;9.87;100.00
37610;BME280;23457;51.966;8.230;2023-05-02T06:42:55;101481.59;;;9.80;100.00
37610;BME280;23457;51.966;8.230;2023-05-02T06:45:21;101487.88;;;9.59;100.00
37610;BME280;23457;51.966;8.230;2023-05-02T06:47:48;101492.63;;;9.46;100.00
37610;BME280;23457;51.966;8.230;2023-05-02T06:50:15;101501.47;;;9.52;100.00
37610;BME280;23457;51.966;8.230;2023-05-02T06:52:41;101498.28;;;9.59;100.00
37610;BME280;23457;51.966;8.230;2023-05-02T06:55:08;101510.22;;;9.81;100.00
37610;BME280;23457;51.966;8.230;2023-05-02T06:57:35;101500.78;;;9.31;100.00
37610;BME280;23457;51.966;8.230;2023-05-02T07:00:01;101524.78;;;9.51;100.00
37610;BME280;23457;51.966;8.230;2023-05-02T07:02:29;101523.03;;;9.50;100.00
37610;BME280;23457;51.966;8.230;2023-05-02T07:04:56;101528.13;;;9.47;100.00
37610;BME280;23457;51.966;8.230;2023-05-02T07:07:22;101535.47;;;9.60;100.00
37610;BME280;23457;51.966;8.230;2023-05-02T07:09:49;101534.41;;;9.80;100.00
37610;BME280;23457;51.966;8.230;2023-05-02T07:12:16;101544.78;;;9.80;100.00
37610;BME280;23457;51.966;8.230;2023-05-02T07:14:43;101548.22;;;9.79;100.00
37610;BME280;23457;51.966;8.230;2023-05-02T07:17:12;101566.66;;;9.87;100.00
37610;BME280;23457;51.966;8.230;2023-05-02T07:19:38;101561.91;;;9.74;100.00
37610;BME280;23457;51.966;8.230;2023-05-02T07:22:05;101563.63;;;10.00;100.00
37610;BME280;23457;51.966;8.230;2023-05-02T07:24:32;101564.06;;;9.87;100.00
37610;BME280;23457;51.966;8.230;2023-05-02T07:26:59;101570.59;;;9.76;100.00
37610;BME280;23457;51.966;8.230;2023-05-02T07:29:26;101573.78;;;9.94;100.00
37610;BME280;23457;51.966;8.230;2023-05-02T07:31:52;101584.47;;;10.03;100.00
37610;BME280;23457;51.966;8.230;2023-05-02T07:34:19;101586.28;;;9.79;100.00
37610;BME280;23457;51.966;8.230;2023-05-02T07:36:45;101602.78;;;9.30;100.00
37610;BME280;23457;51.966;8.230;2023-05-02T07:39:12;101594.22;;;9.32;100.00
37610;BME280;23457;51.966;8.230;2023-05-02T07:41:39;101597.81;;;9.12;100.00
37610;BME280;23457;51.966;8.230;2023-05-02T07:44:05;101597.81;;;9.36;100.00
37610;BME280;23457;51.966;8.230;2023-05-02T07:46:32;101601.84;;;9.28;100.00
37610;BME280;23457;51.966;8.230;2023-05-02T07:48:58;101608.28;;;9.15;100.00
37610;BME280;23457;51.966;8.230;2023-05-02T07:51:25;101612.78;;;8.95;100.00
37610;BME280;23457;51.966;8.230;2023-05-02T07:53:52;101624.34;;;8.81;100.00
37610;BME280;23457;51.966;8.230;2023-05-02T07:56:20;101613.28;;;8.85;100.00
37610;BME280;23457;51.966;8.230;2023-05-02T07:58:47;101618.75;;;8.71;100.00
37610;BME280;23457;51.966;8.230;2023-05-02T08:01:14;101617.50;;;8.83;100.00
37610;BME280;23457;51.966;8.230;2023-05-02T08:03:40;101631.88;;;8.75;100.00
37610;BME280;23457;51.966;8.230;2023-05-02T08:06:07;101628.00;;;8.64;100.00
37610;BME280;23457;51.966;8.230;2023-05-02T08:08:35;101638.75;;;8.97;100.00
37610;BME280;23457;51.966;8.230;2023-05-02T08:11:03;101646.69;;;9.02;100.00
37610;BME280;23457;51.966;8.230;2023-05-02T08:13:29;101647.81;;;9.08;100.00
37610;BME280;23457;51.966;8.230;2023-05-02T08:15:56;101648.91;;;9.15;100.00
37610;BME280;23457;51.966;8.230;2023-05-02T08:18:24;101650.22;;;9.27;100.00
37610;BME280;23457;51.966;8.230;2023-05-02T08:20:51;101661.63;;;9.31;100.00
37610;BME280;23457;51.966;8.230;2023-05-02T08:23:19;101657.19;;;9.52;100.00
37610;BME280;23457;51.966;8.230;2023-05-02T08:25:46;101663.00;;;9.45;100.00
37610;BME280;23457;51.966;8.230;2023-05-02T08:28:12;101681.72;;;9.60;100.00
37610;BME280;23457;51.966;8.230;2023-05-02T08:30:39;101677.75;;;9.72;100.00
37610;BME280;23457;51.966;8.230;2023-05-02T08:33:06;101677.78;;;9.97;100.00
37610;BME280;23457;51.966;8.230;2023-05-02T08:35:32;101680.91;;;10.14;100.00
37610;BME280;23457;51.966;8.230;2023-05-02T08:37:59;101680.84;;;9.85;100.00
37610;BME280;23457;51.966;8.230;2023-05-02T08:40:26;101692.16;;;9.62;100.00
37610;BME280;23457;51.966;8.230;2023-05-02T08:43:07;101696.94;;;9.27;100.00
37610;BME280;23457;51.966;8.230;2023-05-02T08:45:36;101692.03;;;9.35;100.00
37610;BME280;23457;51.966;8.230;2023-05-02T08:48:09;101706.53;;;9.30;100.00
37610;BME280;23457;51.966;8.230;2023-05-02T08:50:37;101713.25;;;9.25;99.77
37610;BME280;23457;51.966;8.230;2023-05-02T08:53:04;101709.91;;;9.27;99.25
37610;BME280;23457;51.966;8.230;2023-05-02T08:55:36;101712.66;;;9.32;95.96
37610;BME280;23457;51.966;8.230;2023-05-02T08:58:06;101717.47;;;9.45;94.69
37610;BME280;23457;51.966;8.230;2023-05-02T09:00:38;101714.31;;;9.54;95.21
37610;BME280;23457;51.966;8.230;2023-05-02T09:03:35;101721.53;;;9.61;94.44
37610;BME280;23457;51.966;8.230;2023-05-02T09:08:36;101720.00;;;9.67;91.48
37610;BME280;23457;51.966;8.230;2023-05-02T09:11:07;101724.81;;;10.06;94.41
37610;BME280;23457;51.966;8.230;2023-05-02T09:16:13;101734.41;;;10.32;91.85
37610;BME280;23457;51.966;8.230;2023-05-02T09:18:45;101740.50;;;10.60;90.65
37610;BME280;23457;51.966;8.230;2023-05-02T09:21:17;101739.31;;;10.77;87.73
37610;BME280;23457;51.966;8.230;2023-05-02T09:23:55;101744.31;;;10.44;87.20
37610;BME280;23457;51.966;8.230;2023-05-02T09:26:27;101742.63;;;10.19;87.20
37610;BME280;23457;51.966;8.230;2023-05-02T09:29:02;101744.25;;;10.17;87.45
37610;BME280;23457;51.966;8.230;2023-05-02T09:31:34;101750.22;;;10.38;88.17
37610;BME280;23457;51.966;8.230;2023-05-02T09:34:14;101748.81;;;10.23;86.62
37610;BME280;23457;51.966;8.230;2023-05-02T09:36:44;101743.72;;;10.26;87.33
37610;BME280;23457;51.966;8.230;2023-05-02T09:39:13;101766.19;;;10.00;87.24
37610;BME280;23457;51.966;8.230;2023-05-02T09:41:47;101767.81;;;10.22;87.67
37610;BME280;23457;51.966;8.230;2023-05-02T09:44:15;101771.56;;;10.30;85.37
37610;BME280;23457;51.966;8.230;2023-05-02T09:46:48;101771.69;;;10.09;85.77
37610;BME280;23457;51.966;8.230;2023-05-02T09:49:15;101775.31;;;10.14;86.78
37610;BME280;23457;51.966;8.230;2023-05-02T09:51:46;101766.09;;;10.48;84.88
37610;BME280;23457;51.966;8.230;2023-05-02T09:54:34;101774.63;;;10.70;83.39
37610;BME280;23457;51.966;8.230;2023-05-02T09:57:03;101778.63;;;10.59;85.04
37610;BME280;23457;51.966;8.230;2023-05-02T09:59:32;101780.09;;;10.53;82.55
37610;BME280;23457;51.966;8.230;2023-05-02T10:02:01;101786.09;;;10.77;81.74
37610;BME280;23457;51.966;8.230;2023-05-02T10:04:29;101785.94;;;10.71;85.49
37610;BME280;23457;51.966;8.230;2023-05-02T10:06:57;101775.53;;;10.71;83.65
37610;BME280;23457;51.966;8.230;2023-05-02T10:09:25;101784.53;;;10.55;85.11
37610;BME280;23457;51.966;8.230;2023-05-02T10:11:53;101793.72;;;10.71;82.63
37610;BME280;23457;51.966;8.230;2023-05-02T10:14:23;101794.34;;;10.37;84.52
37610;BME280;23457;51.966;8.230;2023-05-02T10:17:35;101794.94;;;10.55;82.89
37610;BME280;23457;51.966;8.230;2023-05-02T10:20:06;101807.09;;;10.56;83.23
37610;BME280;23457;51.966;8.230;2023-05-02T10:22:34;101808.50;;;10.21;82.91
37610;BME280;23457;51.966;8.230;2023-05-02T10:25:01;101811.59;;;10.35;82.09
37610;BME280;23457;51.966;8.230;2023-05-02T10:27:29;101811.69;;;10.38;82.58
37610;BME280;23457;51.966;8.230;2023-05-02T10:29:58;101808.88;;;10.32;82.79
37610;BME280;23457;51.966;8.230;2023-05-02T10:32:28;101810.41;;;10.25;82.54
37610;BME280;23457;51.966;8.230;2023-05-02T10:34:56;101821.91;;;10.10;83.76
37610;BME280;23457;51.966;8.230;2023-05-02T10:37:26;101817.78;;;10.38;83.19
37610;BME280;23457;51.966;8.230;2023-05-02T10:39:54;101813.06;;;10.28;82.81
37610;BME280;23457;51.966;8.230;2023-05-02T10:42:21;101813.47;;;10.66;81.58
37610;BME280;23457;51.966;8.230;2023-05-02T10:44:49;101811.03;;;10.70;81.76
37610;BME280;23457;51.966;8.230;2023-05-02T10:47:21;101821.50;;;10.99;79.82
37610;BME280;23457;51.966;8.230;2023-05-02T10:49:51;101819.28;;;10.84;80.08
37610;BME280;23457;51.966;8.230;2023-05-02T10:52:31;101815.75;;;10.82;80.58
37610;BME280;23457;51.966;8.230;2023-05-02T11:00:31;101808.91;;;11.41;77.95
37610;BME280;23457;51.966;8.230;2023-05-02T11:03:00;101809.47;;;11.31;72.37
37610;BME280;23457;51.966;8.230;2023-05-02T11:05:28;101808.69;;;11.05;74.58
37610;BME280;23457;51.966;8.230;2023-05-02T11:10:40;101811.50;;;11.69;73.16
37610;BME280;23457;51.966;8.230;2023-05-02T11:13:07;101814.78;;;11.62;72.38
37610;BME280;23457;51.966;8.230;2023-05-02T11:18:10;101821.66;;;11.60;73.03
37610;BME280;23457;51.966;8.230;2023-05-02T11:20:42;101818.94;;;11.57;71.87
37610;BME280;23457;51.966;8.230;2023-05-02T11:25:46;101826.19;;;11.37;69.72
37610;BME280;23457;51.966;8.230;2023-05-02T11:31:03;101825.50;;;11.44;68.01
37610;BME280;23457;51.966;8.230;2023-05-02T11:33:30;101831.34;;;11.36;70.96
37610;BME280;23457;51.966;8.230;2023-05-02T11:35:57;101827.03;;;11.09;73.95
37610;BME280;23457;51.966;8.230;2023-05-02T11:38:25;101826.22;;;10.84;72.97
37610;BME280;23457;51.966;8.230;2023-05-02T11:40:57;101832.34;;;11.12;69.91
37610;BME280;23457;51.966;8.230;2023-05-02T11:43:27;101839.28;;;10.85;69.93
37610;BME280;23457;51.966;8.230;2023-05-02T11:45:57;101845.69;;;10.44;71.61
37610;BME280;23457;51.966;8.230;2023-05-02T11:48:29;101853.19;;;10.60;70.19
37610;BME280;23457;51.966;8.230;2023-05-02T11:51:23;101861.97;;;10.91;68.82
37610;BME280;23457;51.966;8.230;2023-05-02T11:54:02;101857.28;;;11.06;67.67
37610;BME280;23457;51.966;8.230;2023-05-02T11:56:40;101862.47;;;11.06;66.73
37610;BME280;23457;51.966;8.230;2023-05-02T11:59:21;101870.63;;;11.17;65.47
37610;BME280;23457;51.966;8.230;2023-05-02T12:02:05;101871.31;;;10.84;68.04
37610;BME280;23457;51.966;8.230;2023-05-02T12:04:55;101870.81;;;11.23;64.90
37610;BME280;23457;51.966;8.230;2023-05-02T12:07:41;101879.66;;;11.28;65.14
37610;BME280;23457;51.966;8.230;2023-05-02T12:10:41;101873.38;;;10.94;65.58
37610;BME280;23457;51.966;8.230;2023-05-02T12:13:23;101885.72;;;11.27;65.34
37610;BME280;23457;51.966;8.230;2023-05-02T12:15:59;101882.63;;;11.40;66.54
37610;BME280;23457;51.966;8.230;2023-05-02T12:18:31;101887.09;;;11.72;63.41
37610;BME280;23457;51.966;8.230;2023-05-02T12:21:17;101892.66;;;11.83;62.37
37610;BME280;23457;51.966;8.230;2023-05-02T12:24:05;101896.31;;;11.61;59.58
37610;BME280;23457;51.966;8.230;2023-05-02T12:26:43;101896.13;;;11.27;60.35
37610;BME280;23457;51.966;8.230;2023-05-02T12:29:36;101892.03;;;11.35;59.62
37610;BME280;23457;51.966;8.230;2023-05-02T12:32:42;101899.19;;;11.42;61.64
37610;BME280;23457;51.966;8.230;2023-05-02T12:35:29;101892.50;;;11.77;57.46
37610;BME280;23457;51.966;8.230;2023-05-02T12:38:20;101895.94;;;11.49;57.38
37610;BME280;23457;51.966;8.230;2023-05-02T12:40:58;101906.56;;;11.83;57.12
37610;BME280;23457;51.966;8.230;2023-05-02T12:43:44;101902.09;;;11.79;55.67
37610;BME280;23457;51.966;8.230;2023-05-02T12:46:16;101913.94;;;11.70;55.08
37610;BME280;23457;51.966;8.230;2023-05-02T12:49:09;101908.69;;;11.97;53.12
37610;BME280;23457;51.966;8.230;2023-05-02T12:51:52;101917.84;;;12.75;56.10
37610;BME280;23457;51.966;8.230;2023-05-02T12:54:31;101911.31;;;12.91;52.60
37610;BME280;23457;51.966;8.230;2023-05-02T12:57:29;101909.97;;;13.43;49.24
37610;BME280;23457;51.966;8.230;2023-05-02T13:00:20;101908.97;;;13.75;49.46
37610;BME280;23457;51.966;8.230;2023-05-02T13:02:55;101910.28;;;13.19;49.09
37610;BME280;23457;51.966;8.230;2023-05-02T13:05:28;101914.13;;;13.00;50.11
37610;BME280;23457;51.966;8.230;2023-05-02T13:07:57;101916.22;;;12.79;51.43
37610;BME280;23457;51.966;8.230;2023-05-02T13:10:33;101908.22;;;12.73;50.39
37610;BME280;23457;51.966;8.230;2023-05-02T13:13:06;101908.06;;;12.68;50.62
37610;BME280;23457;51.966;8.230;2023-05-02T13:15:41;101916.47;;;13.60;50.58
37610;BME280;23457;51.966;8.230;2023-05-02T13:18:28;101901.25;;;13.81;49.26
37610;BME280;23457;51.966;8.230;2023-05-02T13:21:09;101907.50;;;13.49;48.77
37610;BME280;23457;51.966;8.230;2023-05-02T13:35:17;101922.28;;;13.12;49.44
37610;BME280;23457;51.966;8.230;2023-05-02T13:50:07;101931.63;;;12.38;51.71
37610;BME280;23457;51.966;8.230;2023-05-02T13:52:37;101929.88;;;12.70;51.80
37610;BME280;23457;51.966;8.230;2023-05-02T13:55:04;101925.47;;;13.01;51.68
37610;BME280;23457;51.966;8.230;2023-05-02T13:57:34;101934.97;;;13.33;52.17
37610;BME280;23457;51.966;8.230;2023-05-02T14:00:04;101935.06;;;13.36;50.00
37610;BME280;23457;51.966;8.230;2023-05-02T14:02:34;101936.06;;;13.41;49.99
37610;BME280;23457;51.966;8.230;2023-05-02T14:05:02;101936.41;;;13.56;48.24